LEGR/GRX METAR and TAF weather

Enter ICAO airport designator
Station Type Date Time Source
LEGR METAR 2019/08/19 07:30 UTC NOAA

LEGR 190730Z VRB01KT CAVOK 20/11 Q1017


Station Type Date Time Source
LEGR Decoded METAR 2019/08/19 07:30 UTC NOAA

Station name not available
Aug 19, 2019 - 03:30 AM EDT / 2019.08.19 0730 UTC
Wind: Variable at 1 MPH (1 KT):0
Visibility: greater than 7 mile(s):0
Temperature: 68 F (20 C)
Dew Point: 51 F (11 C)
Relative Humidity: 56%
Pressure (altimeter): 30.03 in. Hg (1017 hPa)
ob: LEGR 190730Z VRB01KT CAVOK 20/11 Q1017
cycle: 7

Station Type Date Time Source
LEGR TAF 2019/08/19 03:30 UTC NOAA

TAF LEGR 190200Z 1903/2003 26009KT CAVOK TX37/1915Z TN20/1906Z

Example: see airport list